createdAt,value
2022-09-02T00:01:52.419Z,5.35
2022-09-02T00:07:53.223Z,4.93
2022-09-02T00:10:20.326Z,9.98
2022-09-02T00:12:59.111Z,7.78
2022-09-02T00:16:08.240Z,9.07
2022-09-02T00:18:44.857Z,1.92
2022-09-02T00:21:21.468Z,4.90
2022-09-02T00:24:24.774Z,5.40
2022-09-02T00:27:05.014Z,8.35
2022-09-02T00:29:45.768Z,4.40
2022-09-02T00:32:46.324Z,8.23
2022-09-02T00:35:25.980Z,7.00
2022-09-02T00:38:05.597Z,6.07
2022-09-02T00:40:43.087Z,4.55
2022-09-02T00:43:41.747Z,5.32
2022-09-02T00:46:27.037Z,9.45
2022-09-02T00:49:14.376Z,6.07
2022-09-02T00:57:12.487Z,5.78
2022-09-02T01:00:02.235Z,6.70
2022-09-02T01:02:33.871Z,3.15
2022-09-02T01:05:10.639Z,5.32
2022-09-02T01:07:38.784Z,4.35
2022-09-02T01:10:12.396Z,2.38
2022-09-02T01:16:44.787Z,6.60
2022-09-02T01:19:32.612Z,4.80
2022-09-02T01:22:03.087Z,7.93
2022-09-02T01:27:49.956Z,5.55
2022-09-02T01:30:30.813Z,6.00
2022-09-02T01:33:28.562Z,3.20
2022-09-02T01:35:57.871Z,5.30
2022-09-02T01:38:58.584Z,4.25
2022-09-02T01:41:57.841Z,7.13
2022-09-02T01:44:37.155Z,5.65
2022-09-02T01:47:10.013Z,3.30
2022-09-02T01:50:12.410Z,9.55
2022-09-02T01:56:18.991Z,4.50
2022-09-02T01:59:21.569Z,4.60
2022-09-02T02:02:05.787Z,4.07
2022-09-02T02:04:49.165Z,5.57
2022-09-02T02:07:44.965Z,3.28
2022-09-02T02:10:19.068Z,4.57
2022-09-02T02:13:02.118Z,5.10
2022-09-02T02:15:56.517Z,4.20
2022-09-02T02:18:44.767Z,3.70
2022-09-02T02:21:42.319Z,6.53
2022-09-02T02:24:18.427Z,5.80
2022-09-02T02:27:55.267Z,4.57
2022-09-02T02:44:13.241Z,1.98
2022-09-02T02:53:13.373Z,2.35
2022-09-02T02:56:12.564Z,2.58
2022-09-02T02:59:17.793Z,4.45
2022-09-02T03:02:28.469Z,6.22
2022-09-02T03:05:19.072Z,6.43
2022-09-02T03:10:35.575Z,5.55
2022-09-02T03:13:34.009Z,2.95
2022-09-02T03:17:08.041Z,4.85
2022-09-02T03:22:44.032Z,3.47
2022-09-02T03:26:01.374Z,4.25
2022-09-02T03:28:26.621Z,6.13
2022-09-02T03:30:57.198Z,2.53
2022-09-02T03:33:27.390Z,3.88
2022-09-02T03:35:54.442Z,9.98
2022-09-02T03:38:21.695Z,6.15
2022-09-02T03:40:48.877Z,2.80
2022-09-02T03:43:37.824Z,5.80
2022-09-02T03:46:05.506Z,3.97
2022-09-02T03:49:07.987Z,2.40
2022-09-02T03:52:38.209Z,3.17
2022-09-02T03:55:05.858Z,4.18
2022-09-02T03:57:35.276Z,4.75
2022-09-02T04:00:15.632Z,6.45
2022-09-02T04:02:43.332Z,6.60
2022-09-02T04:06:06.073Z,4.78
2022-09-02T04:09:07.222Z,4.13
2022-09-02T04:12:24.362Z,6.07
2022-09-02T04:15:33.886Z,5.75
2022-09-02T04:18:18.062Z,2.53
2022-09-02T04:20:45.211Z,4.13
2022-09-02T04:23:12.417Z,4.00
2022-09-02T04:26:09.386Z,6.30
2022-09-02T04:28:42.528Z,5.80
2022-09-02T04:31:21.948Z,8.55
2022-09-02T04:33:56.802Z,5.45
2022-09-02T04:36:24.288Z,5.93
2022-09-02T04:39:03.859Z,5.82
2022-09-02T04:45:27.820Z,3.95
2022-09-02T04:50:49.250Z,8.90
2022-09-02T04:53:16.486Z,2.90
2022-09-02T04:55:57.955Z,7.55
2022-09-02T04:58:25.222Z,3.30
2022-09-02T05:00:52.277Z,4.70
2022-09-02T05:03:36.538Z,3.97
2022-09-02T05:06:05.973Z,3.22
2022-09-02T05:08:39.335Z,2.83
2022-09-02T05:11:21.627Z,4.30
2022-09-02T05:13:51.859Z,5.82
2022-09-02T05:16:28.169Z,3.20
2022-09-02T05:19:00.810Z,5.55
2022-09-02T05:21:34.695Z,6.03
2022-09-02T05:24:14.013Z,8.80
2022-09-02T05:26:49.820Z,7.65
2022-09-02T05:29:25.952Z,3.80
2022-09-02T05:31:53.115Z,7.93
2022-09-02T05:34:20.238Z,6.32
2022-09-02T05:36:52.923Z,2.70
2022-09-02T05:39:26.070Z,3.08
2022-09-02T05:41:56.484Z,5.47
2022-09-02T05:44:23.623Z,1.83
2022-09-02T05:46:50.777Z,5.07
2022-09-02T05:49:18.041Z,3.72
2022-09-02T05:52:12.043Z,5.53
2022-09-02T05:54:40.187Z,5.55
2022-09-02T05:57:22.320Z,2.60
2022-09-02T05:59:58.509Z,5.05
2022-09-02T06:02:28.237Z,3.42
2022-09-02T06:05:02.736Z,3.65
2022-09-02T06:07:35.442Z,5.18
2022-09-02T06:10:28.401Z,8.30
2022-09-02T06:18:42.367Z,2.58
2022-09-02T06:21:24.499Z,5.32
2022-09-02T06:26:37.118Z,8.32
2022-09-02T06:29:28.437Z,7.55
2022-09-02T06:32:03.872Z,5.40
2022-09-02T06:34:30.942Z,3.90
2022-09-02T06:37:36.454Z,3.00
2022-09-02T06:40:41.170Z,7.53
2022-09-02T06:45:56.803Z,15.18
2022-09-02T06:48:24.015Z,5.70
2022-09-02T06:51:15.057Z,6.72
2022-09-02T06:53:38.907Z,4.60
2022-09-02T06:59:03.783Z,7.40
2022-09-02T07:01:58.931Z,5.32
2022-09-02T07:04:58.493Z,10.82
2022-09-02T07:08:08.410Z,11.27
2022-09-02T07:10:42.092Z,10.68
2022-09-02T07:13:51.128Z,8.50
2022-09-02T07:16:29.398Z,6.18
2022-09-02T07:19:19.910Z,5.45
2022-09-02T07:22:13.952Z,2.92
2022-09-02T07:24:46.099Z,5.50
2022-09-02T07:31:07.864Z,4.38
2022-09-02T07:31:09.359Z,6.95
2022-09-02T07:35:01.008Z,15.13
2022-09-02T08:08:22.106Z,8.40
2022-09-02T08:37:17.115Z,8.45
2022-09-02T08:40:06.830Z,5.90
2022-09-02T08:50:48.044Z,5.50
2022-09-02T08:57:53.930Z,6.53
2022-09-02T09:00:31.085Z,5.50
2022-09-02T09:03:27.059Z,8.48
2022-09-02T09:07:04.919Z,2.40
2022-09-02T09:10:04.955Z,3.92
2022-09-02T09:15:53.855Z,8.35
2022-09-02T09:18:49.003Z,6.35
2022-09-02T09:23:50.427Z,6.43
2022-09-02T09:26:41.173Z,10.05
2022-09-02T09:29:15.923Z,5.00
2022-09-02T09:32:18.044Z,6.18
2022-09-02T09:39:31.840Z,5.60
2022-09-02T09:42:31.273Z,7.30
2022-09-02T09:45:48.683Z,6.18
2022-09-02T09:48:40.015Z,5.55
2022-09-02T09:51:10.226Z,6.90
2022-09-02T09:53:45.318Z,6.82
2022-09-02T09:56:20.227Z,3.90
2022-09-02T09:59:03.932Z,5.85
2022-09-02T10:04:20.831Z,9.05
2022-09-02T10:07:10.797Z,4.40
2022-09-02T10:09:52.682Z,3.73
2022-09-02T10:12:31.253Z,6.78
2022-09-02T10:15:06.482Z,7.25
2022-09-02T10:18:20.757Z,7.07
2022-09-02T10:21:21.936Z,5.40
2022-09-02T10:24:36.163Z,4.88
2022-09-02T10:27:33.516Z,1.63
2022-09-02T14:53:47.781Z,11.43
2022-09-02T14:56:41.716Z,4.45
2022-09-02T14:59:11.721Z,6.20
2022-09-02T15:01:55.452Z,5.80
2022-09-02T15:04:33.798Z,5.60
2022-09-02T15:07:13.639Z,3.58
2022-09-02T15:09:51.620Z,3.97
2022-09-02T15:12:24.458Z,4.78
2022-09-02T15:15:32.571Z,6.30
2022-09-02T15:18:00.702Z,8.10
2022-09-02T15:20:30.688Z,7.15
2022-09-02T15:23:00.762Z,6.85
2022-09-02T15:25:33.298Z,10.63
2022-09-02T15:28:01.391Z,5.43
2022-09-02T15:30:28.811Z,4.95
2022-09-02T15:32:56.029Z,2.90
2022-09-02T15:35:23.166Z,7.65
2022-09-02T15:37:51.098Z,3.95
2022-09-02T15:40:26.758Z,4.53
2022-09-02T15:43:03.472Z,3.28
2022-09-02T15:45:46.277Z,6.95
2022-09-02T15:48:17.271Z,4.70
2022-09-02T15:51:37.887Z,3.13
2022-09-02T15:54:09.270Z,3.50
2022-09-02T15:59:36.485Z,2.47
2022-09-02T16:02:36.106Z,3.45
2022-09-02T16:05:09.934Z,2.05
2022-09-02T16:07:44.116Z,2.97
2022-09-02T16:10:37.902Z,3.75
2022-09-02T17:39:07.545Z,8.88
2022-09-02T17:41:56.775Z,7.57
2022-09-02T17:44:51.956Z,8.63
2022-09-02T17:50:18.001Z,8.40
2022-09-02T17:53:02.283Z,9.65
2022-09-02T17:56:05.730Z,7.55
2022-09-02T17:58:54.263Z,5.50
2022-09-02T18:01:41.463Z,11.13
2022-09-02T18:04:35.245Z,6.38
2022-09-02T18:07:11.098Z,6.53
2022-09-02T18:09:39.213Z,10.25
2022-09-02T18:12:07.993Z,4.50
2022-09-02T18:14:49.678Z,4.88
2022-09-02T18:17:26.704Z,7.82
2022-09-02T18:20:21.598Z,7.07
2022-09-02T18:23:10.152Z,8.45
2022-09-02T18:25:58.729Z,11.30
2022-09-02T18:28:47.574Z,14.07
2022-09-02T18:31:35.474Z,6.75
2022-09-02T18:34:46.379Z,8.55
2022-09-02T18:37:27.045Z,7.65
2022-09-02T18:40:35.233Z,11.18
2022-09-02T18:43:24.592Z,6.38
2022-09-02T18:45:55.526Z,11.73
2022-09-02T18:48:46.079Z,17.25
2022-09-02T18:51:50.795Z,12.50
2022-09-02T18:54:59.998Z,14.48
2022-09-02T18:57:32.905Z,16.45
2022-09-02T19:00:17.287Z,11.57
2022-09-02T19:05:12.651Z,14.23
2022-09-02T19:08:11.358Z,13.23
2022-09-02T19:10:43.816Z,14.00
2022-09-02T19:13:13.473Z,23.40
2022-09-02T19:15:55.933Z,12.05
2022-09-02T19:18:37.333Z,12.95
2022-09-02T19:21:10.100Z,9.90
2022-09-02T19:23:39.127Z,15.70
2022-09-02T19:26:07.005Z,12.27
2022-09-02T19:28:56.357Z,10.65
2022-09-02T19:31:42.133Z,14.77
2022-09-02T19:34:34.255Z,13.45
2022-09-02T19:40:59.713Z,11.45
2022-09-02T19:43:31.857Z,17.70
2022-09-02T19:49:28.312Z,15.27
2022-09-02T20:10:14.632Z,14.45
2022-09-02T20:13:23.105Z,18.70
2022-09-02T20:16:31.616Z,18.35
2022-09-02T20:19:26.675Z,15.45
2022-09-02T20:22:15.905Z,21.90
2022-09-02T20:24:46.512Z,16.35
2022-09-02T20:36:06.470Z,19.50
2022-09-02T21:20:05.035Z,16.25
2022-09-02T21:23:05.842Z,10.30
2022-09-02T21:25:49.769Z,12.18
2022-09-02T21:28:36.397Z,11.90
2022-09-02T21:31:09.332Z,10.15
2022-09-02T21:34:02.929Z,7.75
2022-09-02T21:36:35.127Z,17.05
2022-09-02T21:39:20.241Z,9.93
2022-09-02T21:42:12.797Z,15.38
2022-09-02T21:44:52.848Z,8.75
2022-09-02T21:47:41.714Z,16.25
2022-09-02T21:50:41.719Z,9.57
2022-09-02T21:53:21.186Z,8.60
2022-09-02T21:56:36.888Z,9.48
2022-09-02T21:59:40.314Z,13.52
2022-09-02T22:07:23.107Z,16.55
2022-09-02T22:09:57.070Z,10.57
2022-09-02T22:15:12.909Z,8.77
2022-09-02T22:17:44.985Z,10.95
2022-09-02T22:20:15.968Z,10.52
2022-09-02T22:22:55.263Z,13.38
2022-09-02T22:25:27.499Z,11.02
2022-09-02T22:28:19.848Z,8.68
2022-09-02T22:31:07.574Z,10.15
2022-09-02T22:33:47.486Z,9.65
2022-09-02T22:36:44.455Z,7.32
2022-09-02T22:39:16.891Z,10.95
2022-09-02T22:41:59.819Z,10.18
2022-09-02T22:45:20.206Z,9.75
2022-09-02T22:48:17.548Z,11.30
2022-09-02T22:51:25.590Z,17.73
2022-09-02T22:53:59.824Z,17.75
2022-09-02T22:57:03.304Z,18.52
2022-09-02T23:00:03.180Z,14.45
2022-09-02T23:03:00.602Z,15.35
2022-09-02T23:06:05.247Z,17.60
2022-09-02T23:08:36.025Z,11.30
2022-09-02T23:11:17.455Z,13.10
2022-09-02T23:13:57.193Z,11.50
2022-09-02T23:16:42.317Z,11.80
2022-09-02T23:19:35.281Z,12.20
2022-09-02T23:22:41.233Z,12.00
2022-09-02T23:25:15.905Z,8.40
2022-09-02T23:28:20.170Z,12.05
2022-09-02T23:31:40.412Z,8.88
2022-09-02T23:35:03.831Z,8.68
2022-09-02T23:38:34.409Z,11.32
2022-09-02T23:41:15.362Z,10.95
2022-09-02T23:43:44.439Z,12.65
2022-09-02T23:47:02.933Z,12.23
2022-09-02T23:49:51.798Z,10.55
2022-09-02T23:53:10.349Z,14.00
2022-09-02T23:55:52.742Z,9.80
2022-09-02T23:58:48.377Z,13.35
